Vilas, Colorado
Current Conditions -  °F | °C
As of 1:53 AM on Wednesday 22 Oct 2014 (Local Time) from KLAA Reporting Station
Clear Clear  
Wind Chill: 59°   Ceiling: Unl
Heat Index: 59°   Visibility: 10mi
Dew Point: 49°   Wind: 14mph
Humidity: 69%   Direction: 180°S
Pressure: 29.91"   Gusts: NA
Location:  37.37°N, 102.45°W
Report Text: KLAA 220753Z AUTO 18012KT 10SM CLR 15/09 A2991 RMK AO2 SLP083 T01500094
Loading
Personal Weather Stations






























Interactive Weather Map
Tropical Storm Tracking
New forecast layout! Learn more

10-Day Weather Forecast

Advertisements
Track Severe Weather on mobile